Bluefield, West Virginia
Current Conditions -  °F | °C
As of 8:30 AM on Tuesday 21 Oct 2014 (Local Time) from KBLF Reporting Station
Broken Clouds Broken Clouds  
Wind Chill: 50°   Ceiling: 4800
Heat Index: 50°   Visibility: 10mi
Dew Point: 45°   Wind: 7mph
Humidity: 83%   Direction: 240°WSW
Pressure: 29.95"   Gusts: NA
Location:  37.27°N, 81.22°W
Report Text: KBLF 211230Z AUTO 24006KT 10SM SCT012 SCT021 BKN048 10/07 A2995 RMK AO2 T01000072
Loading
Personal Weather Stations






























Interactive Weather Map New forecast layout! Learn more

10-Day Weather Forecast

Advertisements
Track Severe Weather on mobile